sensor_id;sensor_type;location;lat;lon;timestamp;P1;durP1;ratioP1;P2;durP2;ratioP2
17153;SDS011;8692;52.164;7.558;2022-09-12T00:01:33;10.17;;;9.37;;
17153;SDS011;8692;52.164;7.558;2022-09-12T00:04:03;9.87;;;9.07;;
17153;SDS011;8692;52.164;7.558;2022-09-12T00:06:32;10.40;;;9.60;;
17153;SDS011;8692;52.164;7.558;2022-09-12T00:09:02;9.70;;;8.80;;
17153;SDS011;8692;52.164;7.558;2022-09-12T00:11:34;9.77;;;8.97;;
17153;SDS011;8692;52.164;7.558;2022-09-12T00:14:03;9.63;;;8.83;;
17153;SDS011;8692;52.164;7.558;2022-09-12T00:16:34;10.00;;;9.10;;
17153;SDS011;8692;52.164;7.558;2022-09-12T00:19:07;10.37;;;9.57;;
17153;SDS011;8692;52.164;7.558;2022-09-12T00:21:37;9.07;;;8.17;;
17153;SDS011;8692;52.164;7.558;2022-09-12T00:24:06;10.50;;;9.60;;
17153;SDS011;8692;52.164;7.558;2022-09-12T00:26:37;8.77;;;8.07;;
17153;SDS011;8692;52.164;7.558;2022-09-12T00:29:05;8.93;;;8.23;;
17153;SDS011;8692;52.164;7.558;2022-09-12T00:31:33;9.53;;;8.73;;
17153;SDS011;8692;52.164;7.558;2022-09-12T00:34:02;9.97;;;8.97;;
17153;SDS011;8692;52.164;7.558;2022-09-12T00:36:33;11.00;;;10.00;;
17153;SDS011;8692;52.164;7.558;2022-09-12T00:39:02;10.03;;;9.13;;
17153;SDS011;8692;52.164;7.558;2022-09-12T00:41:31;9.00;;;8.20;;
17153;SDS011;8692;52.164;7.558;2022-09-12T00:44:02;9.67;;;8.87;;
17153;SDS011;8692;52.164;7.558;2022-09-12T00:46:46;8.80;;;8.10;;
17153;SDS011;8692;52.164;7.558;2022-09-12T00:49:17;8.00;;;7.40;;
17153;SDS011;8692;52.164;7.558;2022-09-12T00:51:51;8.63;;;7.93;;
17153;SDS011;8692;52.164;7.558;2022-09-12T00:54:22;9.17;;;8.37;;
17153;SDS011;8692;52.164;7.558;2022-09-12T00:56:55;9.07;;;8.37;;
17153;SDS011;8692;52.164;7.558;2022-09-12T00:59:26;9.57;;;8.73;;
17153;SDS011;8692;52.164;7.558;2022-09-12T01:01:58;8.60;;;7.90;;
17153;SDS011;8692;52.164;7.558;2022-09-12T01:04:27;8.30;;;7.60;;
17153;SDS011;8692;52.164;7.558;2022-09-12T01:06:58;7.70;;;7.10;;
17153;SDS011;8692;52.164;7.558;2022-09-12T01:09:26;7.60;;;7.00;;
17153;SDS011;8692;52.164;7.558;2022-09-12T01:11:54;7.30;;;6.70;;
17153;SDS011;8692;52.164;7.558;2022-09-12T01:14:23;7.60;;;7.00;;
17153;SDS011;8692;52.164;7.558;2022-09-12T01:16:51;8.00;;;7.30;;
17153;SDS011;8692;52.164;7.558;2022-09-12T01:19:32;8.03;;;7.33;;
17153;SDS011;8692;52.164;7.558;2022-09-12T01:22:22;7.53;;;6.93;;
17153;SDS011;8692;52.164;7.558;2022-09-12T01:25:06;7.67;;;7.07;;
17153;SDS011;8692;52.164;7.558;2022-09-12T01:27:53;7.63;;;7.00;;
17153;SDS011;8692;52.164;7.558;2022-09-12T01:30:43;8.00;;;7.30;;
17153;SDS011;8692;52.164;7.558;2022-09-12T01:33:38;7.53;;;6.87;;
17153;SDS011;8692;52.164;7.558;2022-09-12T01:36:27;7.67;;;7.03;;
17153;SDS011;8692;52.164;7.558;2022-09-12T01:39:08;7.47;;;6.87;;
17153;SDS011;8692;52.164;7.558;2022-09-12T01:41:45;6.50;;;6.00;;
17153;SDS011;8692;52.164;7.558;2022-09-12T01:44:22;6.67;;;6.13;;
17153;SDS011;8692;52.164;7.558;2022-09-12T01:47:03;6.90;;;6.37;;
17153;SDS011;8692;52.164;7.558;2022-09-12T01:49:38;7.97;;;7.27;;
17153;SDS011;8692;52.164;7.558;2022-09-12T01:52:16;8.20;;;7.50;;
17153;SDS011;8692;52.164;7.558;2022-09-12T01:54:48;7.73;;;7.03;;
17153;SDS011;8692;52.164;7.558;2022-09-12T01:57:21;8.40;;;7.60;;
17153;SDS011;8692;52.164;7.558;2022-09-12T01:59:55;8.00;;;7.37;;
17153;SDS011;8692;52.164;7.558;2022-09-12T02:02:31;8.27;;;7.50;;
17153;SDS011;8692;52.164;7.558;2022-09-12T02:05:05;7.80;;;7.20;;
17153;SDS011;8692;52.164;7.558;2022-09-12T02:07:39;8.30;;;7.60;;
17153;SDS011;8692;52.164;7.558;2022-09-12T02:10:12;9.40;;;8.60;;
17153;SDS011;8692;52.164;7.558;2022-09-12T02:12:43;8.77;;;7.97;;
17153;SDS011;8692;52.164;7.558;2022-09-12T02:15:17;9.20;;;8.40;;
17153;SDS011;8692;52.164;7.558;2022-09-12T02:17:54;9.03;;;8.13;;
17153;SDS011;8692;52.164;7.558;2022-09-12T02:20:29;9.53;;;8.67;;
17153;SDS011;8692;52.164;7.558;2022-09-12T02:23:17;10.13;;;9.13;;
17153;SDS011;8692;52.164;7.558;2022-09-12T02:25:51;9.63;;;8.77;;
17153;SDS011;8692;52.164;7.558;2022-09-12T02:28:24;10.40;;;9.50;;
17153;SDS011;8692;52.164;7.558;2022-09-12T02:30:59;10.03;;;9.13;;
17153;SDS011;8692;52.164;7.558;2022-09-12T02:33:37;11.40;;;10.20;;
17153;SDS011;8692;52.164;7.558;2022-09-12T02:36:14;10.73;;;9.80;;
17153;SDS011;8692;52.164;7.558;2022-09-12T02:38:49;10.30;;;9.23;;
17153;SDS011;8692;52.164;7.558;2022-09-12T02:41:18;10.97;;;10.03;;
17153;SDS011;8692;52.164;7.558;2022-09-12T02:43:49;11.33;;;10.23;;
17153;SDS011;8692;52.164;7.558;2022-09-12T02:46:20;11.40;;;9.77;;
17153;SDS011;8692;52.164;7.558;2022-09-12T02:48:55;12.10;;;11.00;;
17153;SDS011;8692;52.164;7.558;2022-09-12T02:51:24;11.83;;;10.73;;
17153;SDS011;8692;52.164;7.558;2022-09-12T02:53:55;11.50;;;10.40;;
17153;SDS011;8692;52.164;7.558;2022-09-12T02:56:27;12.33;;;11.13;;
17153;SDS011;8692;52.164;7.558;2022-09-12T02:58:57;11.53;;;10.33;;
17153;SDS011;8692;52.164;7.558;2022-09-12T03:01:33;11.07;;;10.10;;
17153;SDS011;8692;52.164;7.558;2022-09-12T03:04:28;10.83;;;9.83;;
17153;SDS011;8692;52.164;7.558;2022-09-12T03:07:13;11.67;;;10.57;;
17153;SDS011;8692;52.164;7.558;2022-09-12T03:09:48;12.63;;;11.47;;
17153;SDS011;8692;52.164;7.558;2022-09-12T03:12:25;12.23;;;11.03;;
17153;SDS011;8692;52.164;7.558;2022-09-12T03:15:11;12.57;;;11.37;;
17153;SDS011;8692;52.164;7.558;2022-09-12T03:17:50;11.83;;;10.80;;
17153;SDS011;8692;52.164;7.558;2022-09-12T03:20:36;12.43;;;11.23;;
17153;SDS011;8692;52.164;7.558;2022-09-12T03:23:15;12.83;;;11.57;;
17153;SDS011;8692;52.164;7.558;2022-09-12T03:25:51;12.80;;;11.60;;
17153;SDS011;8692;52.164;7.558;2022-09-12T03:28:25;12.80;;;11.57;;
17153;SDS011;8692;52.164;7.558;2022-09-12T03:30:54;13.93;;;12.63;;
17153;SDS011;8692;52.164;7.558;2022-09-12T03:33:24;12.83;;;11.63;;
17153;SDS011;8692;52.164;7.558;2022-09-12T03:35:55;12.63;;;11.43;;
17153;SDS011;8692;52.164;7.558;2022-09-12T03:38:24;12.70;;;11.53;;
17153;SDS011;8692;52.164;7.558;2022-09-12T03:40:52;12.97;;;11.77;;
17153;SDS011;8692;52.164;7.558;2022-09-12T03:43:20;12.27;;;11.17;;
17153;SDS011;8692;52.164;7.558;2022-09-12T03:45:50;11.70;;;10.67;;
17153;SDS011;8692;52.164;7.558;2022-09-12T03:48:19;12.83;;;11.53;;
17153;SDS011;8692;52.164;7.558;2022-09-12T03:50:47;12.83;;;11.60;;
17153;SDS011;8692;52.164;7.558;2022-09-12T03:53:16;12.37;;;11.17;;
17153;SDS011;8692;52.164;7.558;2022-09-12T03:55:47;12.30;;;11.10;;
17153;SDS011;8692;52.164;7.558;2022-09-12T03:58:15;11.90;;;10.80;;
17153;SDS011;8692;52.164;7.558;2022-09-12T04:00:43;12.33;;;11.23;;
17153;SDS011;8692;52.164;7.558;2022-09-12T04:03:14;11.43;;;10.33;;
17153;SDS011;8692;52.164;7.558;2022-09-12T04:05:44;12.27;;;11.10;;
17153;SDS011;8692;52.164;7.558;2022-09-12T04:08:13;11.97;;;10.83;;
17153;SDS011;8692;52.164;7.558;2022-09-12T04:10:42;11.97;;;10.87;;
17153;SDS011;8692;52.164;7.558;2022-09-12T04:13:12;11.43;;;10.33;;
17153;SDS011;8692;52.164;7.558;2022-09-12T04:15:40;10.77;;;9.73;;
17153;SDS011;8692;52.164;7.558;2022-09-12T04:18:08;13.77;;;12.47;;
17153;SDS011;8692;52.164;7.558;2022-09-12T04:20:36;13.43;;;12.23;;
17153;SDS011;8692;52.164;7.558;2022-09-12T04:23:04;13.00;;;11.70;;
17153;SDS011;8692;52.164;7.558;2022-09-12T04:25:33;12.80;;;11.50;;
17153;SDS011;8692;52.164;7.558;2022-09-12T04:28:02;13.70;;;12.40;;
17153;SDS011;8692;52.164;7.558;2022-09-12T04:30:32;14.67;;;13.37;;
17153;SDS011;8692;52.164;7.558;2022-09-12T04:33:03;12.40;;;11.30;;
17153;SDS011;8692;52.164;7.558;2022-09-12T04:35:33;13.77;;;12.47;;
17153;SDS011;8692;52.164;7.558;2022-09-12T04:38:02;12.67;;;11.37;;
17153;SDS011;8692;52.164;7.558;2022-09-12T04:40:30;12.93;;;11.63;;
17153;SDS011;8692;52.164;7.558;2022-09-12T04:42:58;12.93;;;11.70;;
17153;SDS011;8692;52.164;7.558;2022-09-12T04:45:28;13.20;;;11.90;;
17153;SDS011;8692;52.164;7.558;2022-09-12T04:47:58;13.43;;;12.03;;
17153;SDS011;8692;52.164;7.558;2022-09-12T04:50:26;13.13;;;11.83;;
17153;SDS011;8692;52.164;7.558;2022-09-12T04:52:55;13.40;;;12.13;;
17153;SDS011;8692;52.164;7.558;2022-09-12T04:55:26;14.60;;;12.43;;
17153;SDS011;8692;52.164;7.558;2022-09-12T04:57:56;13.77;;;12.47;;
17153;SDS011;8692;52.164;7.558;2022-09-12T05:00:24;13.10;;;11.90;;
17153;SDS011;8692;52.164;7.558;2022-09-12T05:02:54;13.53;;;12.13;;
17153;SDS011;8692;52.164;7.558;2022-09-12T05:05:22;14.30;;;12.90;;
17153;SDS011;8692;52.164;7.558;2022-09-12T05:07:52;13.23;;;12.03;;
17153;SDS011;8692;52.164;7.558;2022-09-12T05:10:20;13.73;;;12.47;;
17153;SDS011;8692;52.164;7.558;2022-09-12T05:12:51;12.97;;;11.77;;
17153;SDS011;8692;52.164;7.558;2022-09-12T05:15:19;15.20;;;13.73;;
17153;SDS011;8692;52.164;7.558;2022-09-12T05:17:47;13.90;;;12.50;;
17153;SDS011;8692;52.164;7.558;2022-09-12T05:20:17;13.57;;;12.27;;
17153;SDS011;8692;52.164;7.558;2022-09-12T05:22:45;14.68;;;13.38;;
17153;SDS011;8692;52.164;7.558;2022-09-12T05:25:13;13.53;;;12.30;;
17153;SDS011;8692;52.164;7.558;2022-09-12T05:27:42;13.43;;;12.13;;
17153;SDS011;8692;52.164;7.558;2022-09-12T05:30:15;12.27;;;11.17;;
17153;SDS011;8692;52.164;7.558;2022-09-12T05:32:46;12.67;;;11.47;;
17153;SDS011;8692;52.164;7.558;2022-09-12T05:35:15;13.37;;;12.07;;
17153;SDS011;8692;52.164;7.558;2022-09-12T05:37:47;13.40;;;12.10;;
17153;SDS011;8692;52.164;7.558;2022-09-12T05:40:15;13.63;;;12.43;;
17153;SDS011;8692;52.164;7.558;2022-09-12T05:42:44;13.87;;;12.43;;
17153;SDS011;8692;52.164;7.558;2022-09-12T05:45:13;14.53;;;13.13;;
17153;SDS011;8692;52.164;7.558;2022-09-12T05:47:43;15.00;;;13.60;;
17153;SDS011;8692;52.164;7.558;2022-09-12T05:50:13;15.27;;;13.77;;
17153;SDS011;8692;52.164;7.558;2022-09-12T05:52:41;14.93;;;13.40;;
17153;SDS011;8692;52.164;7.558;2022-09-12T05:55:10;15.27;;;13.63;;
17153;SDS011;8692;52.164;7.558;2022-09-12T05:57:47;14.47;;;13.07;;
17153;SDS011;8692;52.164;7.558;2022-09-12T06:00:16;14.93;;;13.63;;
17153;SDS011;8692;52.164;7.558;2022-09-12T06:02:50;15.83;;;13.30;;
17153;SDS011;8692;52.164;7.558;2022-09-12T06:05:19;14.50;;;13.13;;
17153;SDS011;8692;52.164;7.558;2022-09-12T06:07:49;14.73;;;13.33;;
17153;SDS011;8692;52.164;7.558;2022-09-12T06:10:19;16.10;;;14.60;;
17153;SDS011;8692;52.164;7.558;2022-09-12T06:12:47;16.40;;;14.90;;
17153;SDS011;8692;52.164;7.558;2022-09-12T06:15:17;16.00;;;14.47;;
17153;SDS011;8692;52.164;7.558;2022-09-12T06:17:47;15.73;;;14.13;;
17153;SDS011;8692;52.164;7.558;2022-09-12T06:20:16;14.63;;;13.07;;
17153;SDS011;8692;52.164;7.558;2022-09-12T06:22:46;16.77;;;15.07;;
17153;SDS011;8692;52.164;7.558;2022-09-12T06:25:14;17.00;;;15.33;;
17153;SDS011;8692;52.164;7.558;2022-09-12T06:27:44;15.60;;;14.10;;
17153;SDS011;8692;52.164;7.558;2022-09-12T06:30:12;15.40;;;13.90;;
17153;SDS011;8692;52.164;7.558;2022-09-12T06:32:41;17.57;;;14.23;;
17153;SDS011;8692;52.164;7.558;2022-09-12T06:35:09;18.87;;;16.87;;
17153;SDS011;8692;52.164;7.558;2022-09-12T06:37:37;16.63;;;14.13;;
17153;SDS011;8692;52.164;7.558;2022-09-12T06:40:06;14.97;;;13.57;;
17153;SDS011;8692;52.164;7.558;2022-09-12T06:42:40;15.27;;;13.77;;
17153;SDS011;8692;52.164;7.558;2022-09-12T06:48:48;17.13;;;15.37;;
17153;SDS011;8692;52.164;7.558;2022-09-12T06:55:12;15.17;;;13.67;;
17153;SDS011;8692;52.164;7.558;2022-09-12T06:58:00;13.20;;;12.00;;
17153;SDS011;8692;52.164;7.558;2022-09-12T07:00:36;14.93;;;13.43;;
17153;SDS011;8692;52.164;7.558;2022-09-12T07:03:12;13.37;;;11.97;;
17153;SDS011;8692;52.164;7.558;2022-09-12T07:06:10;13.67;;;12.47;;
17153;SDS011;8692;52.164;7.558;2022-09-12T07:08:42;15.93;;;14.23;;
17153;SDS011;8692;52.164;7.558;2022-09-12T07:11:18;14.33;;;13.03;;
17153;SDS011;8692;52.164;7.558;2022-09-12T07:13:53;14.03;;;12.67;;
17153;SDS011;8692;52.164;7.558;2022-09-12T07:23:09;14.60;;;12.93;;
17153;SDS011;8692;52.164;7.558;2022-09-12T07:25:55;13.60;;;12.40;;
17153;SDS011;8692;52.164;7.558;2022-09-12T07:28:40;12.57;;;11.27;;
17153;SDS011;8692;52.164;7.558;2022-09-12T07:32:23;13.90;;;12.50;;
17153;SDS011;8692;52.164;7.558;2022-09-12T07:35:24;14.70;;;13.20;;
17153;SDS011;8692;52.164;7.558;2022-09-12T07:37:58;13.80;;;12.50;;
17153;SDS011;8692;52.164;7.558;2022-09-12T07:47:06;13.10;;;11.70;;
17153;SDS011;8692;52.164;7.558;2022-09-12T07:55:58;13.63;;;12.27;;
17153;SDS011;8692;52.164;7.558;2022-09-12T08:02:03;12.30;;;11.20;;
17153;SDS011;8692;52.164;7.558;2022-09-12T08:04:48;12.33;;;11.13;;
17153;SDS011;8692;52.164;7.558;2022-09-12T08:07:41;11.93;;;10.73;;
17153;SDS011;8692;52.164;7.558;2022-09-12T08:10:24;11.73;;;10.70;;
17153;SDS011;8692;52.164;7.558;2022-09-12T08:13:07;11.53;;;10.43;;
17153;SDS011;8692;52.164;7.558;2022-09-12T08:18:59;11.87;;;10.57;;
17153;SDS011;8692;52.164;7.558;2022-09-12T08:21:38;12.33;;;11.13;;
17153;SDS011;8692;52.164;7.558;2022-09-12T08:27:44;13.50;;;12.10;;
17153;SDS011;8692;52.164;7.558;2022-09-12T08:33:33;12.27;;;11.03;;
17153;SDS011;8692;52.164;7.558;2022-09-12T08:36:17;11.00;;;9.93;;
17153;SDS011;8692;52.164;7.558;2022-09-12T08:38:57;11.10;;;10.00;;
17153;SDS011;8692;52.164;7.558;2022-09-12T08:45:09;11.70;;;10.57;;
17153;SDS011;8692;52.164;7.558;2022-09-12T08:47:58;12.60;;;11.40;;
17153;SDS011;8692;52.164;7.558;2022-09-12T08:50:36;10.70;;;9.70;;
17153;SDS011;8692;52.164;7.558;2022-09-12T08:53:17;12.03;;;10.83;;
17153;SDS011;8692;52.164;7.558;2022-09-12T08:55:58;10.67;;;9.57;;
17153;SDS011;8692;52.164;7.558;2022-09-12T08:58:45;11.93;;;10.83;;
17153;SDS011;8692;52.164;7.558;2022-09-12T09:01:20;11.37;;;10.37;;
17153;SDS011;8692;52.164;7.558;2022-09-12T09:07:38;10.97;;;9.83;;
17153;SDS011;8692;52.164;7.558;2022-09-12T09:13:41;10.60;;;9.50;;
17153;SDS011;8692;52.164;7.558;2022-09-12T09:17:25;10.90;;;9.70;;
17153;SDS011;8692;52.164;7.558;2022-09-12T09:20:15;10.13;;;9.13;;
17153;SDS011;8692;52.164;7.558;2022-09-12T09:22:51;10.83;;;9.83;;
17153;SDS011;8692;52.164;7.558;2022-09-12T09:25:37;12.13;;;10.90;;
17153;SDS011;8692;52.164;7.558;2022-09-12T09:28:22;11.63;;;10.47;;
17153;SDS011;8692;52.164;7.558;2022-09-12T09:31:01;11.67;;;10.47;;
17153;SDS011;8692;52.164;7.558;2022-09-12T09:33:33;11.60;;;10.40;;
17153;SDS011;8692;52.164;7.558;2022-09-12T09:36:15;12.30;;;11.10;;
17153;SDS011;8692;52.164;7.558;2022-09-12T09:39:04;11.63;;;10.30;;
17153;SDS011;8692;52.164;7.558;2022-09-12T09:41:55;12.73;;;10.90;;
17153;SDS011;8692;52.164;7.558;2022-09-12T09:44:46;12.07;;;10.17;;
17153;SDS011;8692;52.164;7.558;2022-09-12T09:50:02;12.07;;;10.63;;
17153;SDS011;8692;52.164;7.558;2022-09-12T09:59:24;11.23;;;10.03;;
17153;SDS011;8692;52.164;7.558;2022-09-12T10:02:20;12.20;;;11.07;;
17153;SDS011;8692;52.164;7.558;2022-09-12T10:08:05;11.13;;;9.87;;
17153;SDS011;8692;52.164;7.558;2022-09-12T10:10:40;11.90;;;10.50;;
17153;SDS011;8692;52.164;7.558;2022-09-12T10:13:40;11.43;;;10.27;;
17153;SDS011;8692;52.164;7.558;2022-09-12T10:25:56;12.00;;;10.63;;
17153;SDS011;8692;52.164;7.558;2022-09-12T10:29:12;12.23;;;10.80;;
17153;SDS011;8692;52.164;7.558;2022-09-12T10:32:03;11.47;;;10.27;;
17153;SDS011;8692;52.164;7.558;2022-09-12T10:41:25;12.77;;;11.33;;
17153;SDS011;8692;52.164;7.558;2022-09-12T10:44:13;12.57;;;11.37;;
17153;SDS011;8692;52.164;7.558;2022-09-12T10:46:43;15.33;;;11.83;;
17153;SDS011;8692;52.164;7.558;2022-09-12T10:55:04;11.77;;;10.53;;
17153;SDS011;8692;52.164;7.558;2022-09-12T11:04:52;12.70;;;11.37;;
17153;SDS011;8692;52.164;7.558;2022-09-12T11:08:01;15.03;;;11.17;;
17153;SDS011;8692;52.164;7.558;2022-09-12T11:10:54;12.43;;;10.97;;
17153;SDS011;8692;52.164;7.558;2022-09-12T11:17:02;13.60;;;9.77;;
17153;SDS011;8692;52.164;7.558;2022-09-12T11:26:02;9.60;;;8.63;;
17153;SDS011;8692;52.164;7.558;2022-09-12T11:31:41;12.93;;;10.60;;
17153;SDS011;8692;52.164;7.558;2022-09-12T11:34:51;11.10;;;9.23;;
17153;SDS011;8692;52.164;7.558;2022-09-12T11:37:35;10.73;;;9.33;;
17153;SDS011;8692;52.164;7.558;2022-09-12T11:40:31;11.77;;;8.83;;
17153;SDS011;8692;52.164;7.558;2022-09-12T11:43:36;7.37;;;6.67;;
17153;SDS011;8692;52.164;7.558;2022-09-12T11:53:57;6.10;;;5.50;;
17153;SDS011;8692;52.164;7.558;2022-09-12T11:59:42;6.97;;;4.88;;
17153;SDS011;8692;52.164;7.558;2022-09-12T12:02:38;5.05;;;4.55;;
17153;SDS011;8692;52.164;7.558;2022-09-12T12:05:41;4.15;;;3.85;;
17153;SDS011;8692;52.164;7.558;2022-09-12T12:08:23;4.47;;;3.70;;
17153;SDS011;8692;52.164;7.558;2022-09-12T12:11:00;6.32;;;3.83;;
17153;SDS011;8692;52.164;7.558;2022-09-12T12:13:32;5.47;;;4.47;;
17153;SDS011;8692;52.164;7.558;2022-09-12T12:16:18;4.00;;;3.60;;
17153;SDS011;8692;52.164;7.558;2022-09-12T12:18:55;5.22;;;4.72;;
17153;SDS011;8692;52.164;7.558;2022-09-12T12:21:42;8.75;;;4.18;;
17153;SDS011;8692;52.164;7.558;2022-09-12T12:24:18;4.30;;;3.78;;
17153;SDS011;8692;52.164;7.558;2022-09-12T12:40:33;6.57;;;3.83;;
17153;SDS011;8692;52.164;7.558;2022-09-12T12:43:03;3.78;;;3.47;;
17153;SDS011;8692;52.164;7.558;2022-09-12T12:46:06;4.47;;;3.30;;
17153;SDS011;8692;52.164;7.558;2022-09-12T12:55:00;5.50;;;3.63;;
17153;SDS011;8692;52.164;7.558;2022-09-12T12:57:47;5.72;;;3.55;;
17153;SDS011;8692;52.164;7.558;2022-09-12T13:03:39;5.80;;;3.20;;
17153;SDS011;8692;52.164;7.558;2022-09-12T13:06:34;8.73;;;4.18;;
17153;SDS011;8692;52.164;7.558;2022-09-12T13:09:17;3.85;;;3.55;;
17153;SDS011;8692;52.164;7.558;2022-09-12T13:12:01;3.50;;;3.20;;
17153;SDS011;8692;52.164;7.558;2022-09-12T13:14:52;4.07;;;2.63;;
17153;SDS011;8692;52.164;7.558;2022-09-12T13:17:26;4.65;;;2.90;;
17153;SDS011;8692;52.164;7.558;2022-09-12T13:20:21;6.53;;;3.60;;
17153;SDS011;8692;52.164;7.558;2022-09-12T13:22:55;3.92;;;3.42;;
17153;SDS011;8692;52.164;7.558;2022-09-12T13:25:30;5.53;;;3.45;;
17153;SDS011;8692;52.164;7.558;2022-09-12T13:28:24;4.43;;;4.03;;
17153;SDS011;8692;52.164;7.558;2022-09-12T13:31:18;3.95;;;3.53;;
17153;SDS011;8692;52.164;7.558;2022-09-12T13:46:37;5.43;;;4.45;;
17153;SDS011;8692;52.164;7.558;2022-09-12T13:49:09;6.97;;;3.58;;
17153;SDS011;8692;52.164;7.558;2022-09-12T13:52:08;4.05;;;3.70;;
17153;SDS011;8692;52.164;7.558;2022-09-12T13:58:22;4.07;;;3.75;;
17153;SDS011;8692;52.164;7.558;2022-09-12T14:04:30;7.05;;;4.03;;
17153;SDS011;8692;52.164;7.558;2022-09-12T14:10:28;4.53;;;3.92;;
17153;SDS011;8692;52.164;7.558;2022-09-12T14:13:10;3.40;;;3.10;;
17153;SDS011;8692;52.164;7.558;2022-09-12T14:15:52;4.65;;;4.13;;
17153;SDS011;8692;52.164;7.558;2022-09-12T14:21:34;4.85;;;3.83;;
17153;SDS011;8692;52.164;7.558;2022-09-12T14:24:32;5.13;;;3.90;;
17153;SDS011;8692;52.164;7.558;2022-09-12T14:27:02;3.97;;;3.53;;
17153;SDS011;8692;52.164;7.558;2022-09-12T14:29:51;3.85;;;3.40;;
17153;SDS011;8692;52.164;7.558;2022-09-12T14:32:40;4.72;;;3.25;;
17153;SDS011;8692;52.164;7.558;2022-09-12T14:35:18;5.40;;;3.85;;
17153;SDS011;8692;52.164;7.558;2022-09-12T14:37:54;3.90;;;3.60;;
17153;SDS011;8692;52.164;7.558;2022-09-12T14:40:39;5.25;;;3.33;;
17153;SDS011;8692;52.164;7.558;2022-09-12T14:43:16;3.67;;;2.35;;
17153;SDS011;8692;52.164;7.558;2022-09-12T14:48:54;4.63;;;2.92;;
17153;SDS011;8692;52.164;7.558;2022-09-12T14:51:26;4.53;;;3.15;;
17153;SDS011;8692;52.164;7.558;2022-09-12T14:54:03;4.63;;;3.15;;
17153;SDS011;8692;52.164;7.558;2022-09-12T14:56:38;3.67;;;2.90;;
17153;SDS011;8692;52.164;7.558;2022-09-12T15:05:21;3.50;;;3.20;;
17153;SDS011;8692;52.164;7.558;2022-09-12T15:07:53;3.25;;;2.95;;
17153;SDS011;8692;52.164;7.558;2022-09-12T15:10:25;3.25;;;2.63;;
17153;SDS011;8692;52.164;7.558;2022-09-12T15:15:47;2.50;;;2.30;;
17153;SDS011;8692;52.164;7.558;2022-09-12T15:18:18;2.92;;;2.60;;
17153;SDS011;8692;52.164;7.558;2022-09-12T15:20:48;2.83;;;2.63;;
17153;SDS011;8692;52.164;7.558;2022-09-12T15:23:27;2.78;;;2.58;;
17153;SDS011;8692;52.164;7.558;2022-09-12T15:26:02;3.03;;;2.40;;
17153;SDS011;8692;52.164;7.558;2022-09-12T15:28:36;3.08;;;2.70;;
17153;SDS011;8692;52.164;7.558;2022-09-12T15:31:19;2.65;;;2.45;;
17153;SDS011;8692;52.164;7.558;2022-09-12T15:33:52;3.65;;;2.10;;
17153;SDS011;8692;52.164;7.558;2022-09-12T15:36:22;2.03;;;1.92;;
17153;SDS011;8692;52.164;7.558;2022-09-12T15:38:51;2.92;;;2.10;;
17153;SDS011;8692;52.164;7.558;2022-09-12T15:41:21;2.25;;;1.95;;
17153;SDS011;8692;52.164;7.558;2022-09-12T15:43:53;3.08;;;2.53;;
17153;SDS011;8692;52.164;7.558;2022-09-12T15:46:22;2.15;;;2.05;;
17153;SDS011;8692;52.164;7.558;2022-09-12T15:48:52;3.28;;;1.98;;
17153;SDS011;8692;52.164;7.558;2022-09-12T15:51:23;2.35;;;1.80;;
17153;SDS011;8692;52.164;7.558;2022-09-12T15:53:51;3.33;;;2.30;;
17153;SDS011;8692;52.164;7.558;2022-09-12T15:56:21;2.10;;;1.90;;
17153;SDS011;8692;52.164;7.558;2022-09-12T15:58:49;2.45;;;1.98;;
17153;SDS011;8692;52.164;7.558;2022-09-12T16:01:25;2.58;;;2.35;;
17153;SDS011;8692;52.164;7.558;2022-09-12T16:03:54;2.22;;;1.88;;
17153;SDS011;8692;52.164;7.558;2022-09-12T16:06:23;3.05;;;2.45;;
17153;SDS011;8692;52.164;7.558;2022-09-12T16:08:53;2.97;;;2.58;;
17153;SDS011;8692;52.164;7.558;2022-09-12T16:11:24;3.53;;;2.53;;
17153;SDS011;8692;52.164;7.558;2022-09-12T16:13:55;3.03;;;2.67;;
17153;SDS011;8692;52.164;7.558;2022-09-12T16:16:26;2.97;;;2.47;;
17153;SDS011;8692;52.164;7.558;2022-09-12T16:18:54;3.20;;;2.40;;
17153;SDS011;8692;52.164;7.558;2022-09-12T16:21:22;4.45;;;2.40;;
17153;SDS011;8692;52.164;7.558;2022-09-12T16:23:51;5.15;;;2.72;;
17153;SDS011;8692;52.164;7.558;2022-09-12T16:26:19;2.42;;;2.22;;
17153;SDS011;8692;52.164;7.558;2022-09-12T16:28:54;2.42;;;2.22;;
17153;SDS011;8692;52.164;7.558;2022-09-12T16:31:22;3.15;;;2.35;;
17153;SDS011;8692;52.164;7.558;2022-09-12T16:33:51;2.42;;;2.22;;
17153;SDS011;8692;52.164;7.558;2022-09-12T16:36:22;3.58;;;2.85;;
17153;SDS011;8692;52.164;7.558;2022-09-12T16:38:50;2.10;;;2.00;;
17153;SDS011;8692;52.164;7.558;2022-09-12T16:41:22;2.50;;;2.10;;
17153;SDS011;8692;52.164;7.558;2022-09-12T16:43:51;2.40;;;2.20;;
17153;SDS011;8692;52.164;7.558;2022-09-12T16:46:22;2.42;;;2.22;;
17153;SDS011;8692;52.164;7.558;2022-09-12T16:48:52;2.83;;;2.63;;
17153;SDS011;8692;52.164;7.558;2022-09-12T16:51:22;2.80;;;2.60;;
17153;SDS011;8692;52.164;7.558;2022-09-12T16:53:51;2.20;;;2.00;;
17153;SDS011;8692;52.164;7.558;2022-09-12T16:56:23;2.55;;;2.42;;
17153;SDS011;8692;52.164;7.558;2022-09-12T16:58:53;2.50;;;2.30;;
17153;SDS011;8692;52.164;7.558;2022-09-12T17:01:22;2.28;;;2.10;;
17153;SDS011;8692;52.164;7.558;2022-09-12T17:03:52;2.63;;;1.95;;
17153;SDS011;8692;52.164;7.558;2022-09-12T17:06:24;2.60;;;2.40;;
17153;SDS011;8692;52.164;7.558;2022-09-12T17:08:54;6.30;;;2.60;;
17153;SDS011;8692;52.164;7.558;2022-09-12T17:11:27;2.70;;;2.50;;
17153;SDS011;8692;52.164;7.558;2022-09-12T17:13:58;3.00;;;2.30;;
17153;SDS011;8692;52.164;7.558;2022-09-12T17:16:32;2.72;;;2.47;;
17153;SDS011;8692;52.164;7.558;2022-09-12T17:19:04;2.30;;;2.10;;
17153;SDS011;8692;52.164;7.558;2022-09-12T17:21:33;2.63;;;2.40;;
17153;SDS011;8692;52.164;7.558;2022-09-12T17:24:04;2.40;;;2.22;;
17153;SDS011;8692;52.164;7.558;2022-09-12T17:26:33;2.40;;;2.28;;
17153;SDS011;8692;52.164;7.558;2022-09-12T17:29:11;3.63;;;2.50;;
17153;SDS011;8692;52.164;7.558;2022-09-12T17:31:40;2.35;;;2.15;;
17153;SDS011;8692;52.164;7.558;2022-09-12T17:34:11;2.83;;;2.63;;
17153;SDS011;8692;52.164;7.558;2022-09-12T17:36:41;2.63;;;2.40;;
17153;SDS011;8692;52.164;7.558;2022-09-12T17:39:13;2.53;;;2.30;;
17153;SDS011;8692;52.164;7.558;2022-09-12T17:41:44;3.50;;;2.58;;
17153;SDS011;8692;52.164;7.558;2022-09-12T17:44:13;2.80;;;2.45;;
17153;SDS011;8692;52.164;7.558;2022-09-12T17:46:42;2.63;;;2.42;;
17153;SDS011;8692;52.164;7.558;2022-09-12T17:49:11;2.50;;;2.30;;
17153;SDS011;8692;52.164;7.558;2022-09-12T17:51:40;2.43;;;2.23;;
17153;SDS011;8692;52.164;7.558;2022-09-12T17:54:09;2.67;;;2.47;;
17153;SDS011;8692;52.164;7.558;2022-09-12T17:56:42;2.80;;;2.60;;
17153;SDS011;8692;52.164;7.558;2022-09-12T17:59:12;3.20;;;2.90;;
17153;SDS011;8692;52.164;7.558;2022-09-12T18:01:43;2.38;;;2.28;;
17153;SDS011;8692;52.164;7.558;2022-09-12T18:04:30;2.80;;;2.60;;
17153;SDS011;8692;52.164;7.558;2022-09-12T18:06:58;2.70;;;2.50;;
17153;SDS011;8692;52.164;7.558;2022-09-12T18:09:26;3.20;;;2.90;;
17153;SDS011;8692;52.164;7.558;2022-09-12T18:11:56;2.77;;;2.50;;
17153;SDS011;8692;52.164;7.558;2022-09-12T18:14:26;2.97;;;2.70;;
17153;SDS011;8692;52.164;7.558;2022-09-12T18:16:56;3.20;;;2.90;;
17153;SDS011;8692;52.164;7.558;2022-09-12T18:19:25;3.43;;;2.60;;
17153;SDS011;8692;52.164;7.558;2022-09-12T18:21:54;3.10;;;2.90;;
17153;SDS011;8692;52.164;7.558;2022-09-12T18:24:25;3.93;;;3.10;;
17153;SDS011;8692;52.164;7.558;2022-09-12T18:26:56;3.07;;;2.70;;
17153;SDS011;8692;52.164;7.558;2022-09-12T18:29:26;3.20;;;2.93;;
17153;SDS011;8692;52.164;7.558;2022-09-12T18:31:54;3.13;;;2.93;;
17153;SDS011;8692;52.164;7.558;2022-09-12T18:34:25;5.07;;;2.90;;
17153;SDS011;8692;52.164;7.558;2022-09-12T18:36:53;3.40;;;3.10;;